createdAt,value
2019-05-11T00:00:12.221Z,83.46
2019-05-11T00:02:38.912Z,83.69
2019-05-11T00:05:05.911Z,83.95
2019-05-11T00:07:32.804Z,83.72
2019-05-11T00:09:59.599Z,83.68
2019-05-11T00:12:26.373Z,83.75
2019-05-11T00:14:53.048Z,83.34
2019-05-11T00:17:19.866Z,83.25
2019-05-11T00:19:46.549Z,83.20
2019-05-11T00:22:13.330Z,83.06
2019-05-11T00:24:40.214Z,83.08
2019-05-11T00:29:38.880Z,83.57
2019-05-11T00:32:05.671Z,83.99
2019-05-11T00:34:32.476Z,84.28
2019-05-11T00:36:59.044Z,84.47
2019-05-11T00:39:25.769Z,84.57
2019-05-11T00:41:52.359Z,84.61
2019-05-11T00:44:19.145Z,84.71
2019-05-11T00:46:46.018Z,84.56
2019-05-11T00:49:12.872Z,84.60
2019-05-11T00:51:39.655Z,84.69
2019-05-11T00:54:06.460Z,84.69
2019-05-11T00:56:33.335Z,84.80
2019-05-11T00:59:00.126Z,84.83
2019-05-11T01:01:26.933Z,84.83
2019-05-11T01:03:53.727Z,84.87
2019-05-11T01:06:20.524Z,84.99
2019-05-11T01:08:47.270Z,85.00
2019-05-11T01:11:14.036Z,84.88
2019-05-11T01:13:40.795Z,84.61
2019-05-11T01:16:07.473Z,84.36
2019-05-11T01:18:34.184Z,84.22
2019-05-11T01:21:00.857Z,84.31
2019-05-11T01:23:27.819Z,84.53
2019-05-11T01:25:54.585Z,84.54
2019-05-11T01:28:21.294Z,84.65
2019-05-11T01:30:48.056Z,84.16
2019-05-11T01:33:14.870Z,84.26
2019-05-11T01:35:41.630Z,84.27
2019-05-11T01:38:08.395Z,84.39
2019-05-11T01:40:35.104Z,84.51
2019-05-11T01:43:01.887Z,84.86
2019-05-11T01:45:28.567Z,84.63
2019-05-11T01:47:55.291Z,84.45
2019-05-11T01:50:21.983Z,84.72
2019-05-11T01:52:48.646Z,84.82
2019-05-11T01:55:15.336Z,85.00
2019-05-11T01:57:41.994Z,85.09
2019-05-11T02:00:08.978Z,85.07
2019-05-11T02:02:35.655Z,85.36
2019-05-11T02:05:20.468Z,85.49
2019-05-11T02:07:48.775Z,85.54
2019-05-11T02:10:15.550Z,85.59
2019-05-11T02:12:42.154Z,85.76
2019-05-11T02:15:08.851Z,85.69
2019-05-11T02:17:35.559Z,85.82
2019-05-11T02:20:02.349Z,85.71
2019-05-11T02:22:29.156Z,85.85
2019-05-11T02:24:55.845Z,85.89
2019-05-11T02:27:22.676Z,85.87
2019-05-11T02:29:49.610Z,85.96
2019-05-11T02:32:16.280Z,85.29
2019-05-11T02:34:42.966Z,85.12
2019-05-11T02:37:09.713Z,85.48
2019-05-11T02:39:36.283Z,85.71
2019-05-11T02:42:03.147Z,85.90
2019-05-11T02:44:29.966Z,85.80
2019-05-11T02:46:56.694Z,85.82
2019-05-11T02:49:27.760Z,85.90
2019-05-11T02:51:52.244Z,85.74
2019-05-11T02:54:19.130Z,85.58
2019-05-11T02:56:45.797Z,85.51
2019-05-11T02:59:12.477Z,85.26
2019-05-11T03:01:39.159Z,85.34
2019-05-11T03:04:05.935Z,85.62
2019-05-11T03:06:32.702Z,85.86
2019-05-11T03:08:59.391Z,86.02
2019-05-11T03:11:25.977Z,86.03
2019-05-11T03:13:52.624Z,86.16
2019-05-11T03:16:19.300Z,86.50
2019-05-11T03:18:46.073Z,86.62
2019-05-11T03:21:12.650Z,86.57
2019-05-11T03:23:39.214Z,86.50
2019-05-11T03:26:06.286Z,86.40
2019-05-11T03:28:33.142Z,86.27
2019-05-11T03:31:02.123Z,86.20
2019-05-11T03:33:29.117Z,86.19
2019-05-11T03:35:55.894Z,86.08
2019-05-11T03:38:22.454Z,86.04
2019-05-11T03:40:49.436Z,85.75
2019-05-11T03:43:16.100Z,85.62
2019-05-11T03:45:43.089Z,85.64
2019-05-11T03:48:10.141Z,85.68
2019-05-11T03:50:36.988Z,85.63
2019-05-11T03:53:03.854Z,85.61
2019-05-11T03:55:30.636Z,85.60
2019-05-11T03:57:57.222Z,85.73
2019-05-11T04:00:23.985Z,85.55
2019-05-11T04:02:50.599Z,85.46
2019-05-11T04:05:17.384Z,85.50
2019-05-11T04:07:44.195Z,85.57
2019-05-11T04:10:10.890Z,85.50
2019-05-11T04:12:37.642Z,85.34
2019-05-11T04:15:04.905Z,85.24
2019-05-11T04:17:31.575Z,85.22
2019-05-11T04:19:58.260Z,85.12
2019-05-11T04:22:24.955Z,84.82
2019-05-11T04:24:51.948Z,84.64
2019-05-11T04:27:19.611Z,84.45
2019-05-11T04:29:46.736Z,84.53
2019-05-11T04:32:13.422Z,84.08
2019-05-11T04:34:40.143Z,83.59
2019-05-11T04:37:06.825Z,83.55
2019-05-11T04:39:33.631Z,83.40
2019-05-11T04:42:00.234Z,83.45
2019-05-11T04:44:26.912Z,82.88
2019-05-11T04:46:53.599Z,82.72
2019-05-11T04:49:20.285Z,82.78
2019-05-11T04:51:47.068Z,82.51
2019-05-11T04:54:13.738Z,82.30
2019-05-11T04:56:40.467Z,82.62
2019-05-11T04:59:07.196Z,82.62
2019-05-11T05:01:35.457Z,82.25
2019-05-11T05:04:13.294Z,82.15
2019-05-11T05:06:30.997Z,81.19
2019-05-11T05:08:58.265Z,81.43
2019-05-11T05:11:30.608Z,80.83
2019-05-11T05:13:54.638Z,80.18
2019-05-11T05:16:21.331Z,80.32
2019-05-11T05:18:47.999Z,80.44
2019-05-11T05:21:14.783Z,80.51
2019-05-11T05:23:41.554Z,79.81
2019-05-11T05:26:08.167Z,79.69
2019-05-11T05:28:34.927Z,79.30
2019-05-11T05:31:01.716Z,79.02
2019-05-11T05:33:28.394Z,78.13
2019-05-11T05:35:55.077Z,77.98
2019-05-11T05:38:21.654Z,77.83
2019-05-11T05:40:48.368Z,77.40
2019-05-11T05:43:26.020Z,76.51
2019-05-11T05:45:43.527Z,76.66
2019-05-11T05:48:10.224Z,76.18
2019-05-11T05:50:36.908Z,75.47
2019-05-11T05:53:03.740Z,74.76
2019-05-11T05:55:30.346Z,74.79
2019-05-11T05:57:57.199Z,74.15
2019-05-11T06:00:23.980Z,73.43
2019-05-11T06:02:50.813Z,73.93
2019-05-11T06:05:19.784Z,73.07
2019-05-11T06:07:47.272Z,72.97
2019-05-11T06:10:14.189Z,73.45
2019-05-11T06:12:40.890Z,74.07
2019-05-11T06:15:08.367Z,74.43
2019-05-11T06:17:34.966Z,74.27
2019-05-11T06:20:02.392Z,74.70
2019-05-11T06:22:30.889Z,75.21
2019-05-11T06:24:57.461Z,74.37
2019-05-11T06:27:24.148Z,74.91
2019-05-11T06:29:50.844Z,74.42
2019-05-11T06:32:17.527Z,73.25
2019-05-11T06:34:44.309Z,73.72
2019-05-11T06:37:10.987Z,73.23
2019-05-11T06:39:37.664Z,72.92
2019-05-11T06:42:04.474Z,72.64
2019-05-11T06:44:31.150Z,73.62
2019-05-11T06:46:58.211Z,72.83
2019-05-11T06:49:24.889Z,73.09
2019-05-11T06:51:51.480Z,73.04
2019-05-11T06:54:18.258Z,72.97
2019-05-11T06:56:44.855Z,72.78
2019-05-11T06:59:11.854Z,73.29
2019-05-11T07:01:38.577Z,72.32
2019-05-11T07:04:05.345Z,72.31
2019-05-11T07:06:33.123Z,72.45
2019-05-11T07:08:59.684Z,72.58
2019-05-11T07:11:26.337Z,72.49
2019-05-11T07:13:52.978Z,73.17
2019-05-11T07:16:19.734Z,72.45
2019-05-11T07:18:46.444Z,71.79
2019-05-11T07:21:13.110Z,71.67
2019-05-11T07:23:39.790Z,72.07
2019-05-11T07:26:06.579Z,71.64
2019-05-11T07:28:33.279Z,71.71
2019-05-11T07:31:00.008Z,70.87
2019-05-11T07:33:28.709Z,71.05
2019-05-11T07:35:55.269Z,70.82
2019-05-11T07:38:21.982Z,70.84
2019-05-11T07:40:48.774Z,71.05
2019-05-11T07:43:15.589Z,71.76
2019-05-11T07:45:42.253Z,71.53
2019-05-11T07:48:08.866Z,71.79
2019-05-11T07:50:35.432Z,72.54
2019-05-11T07:53:02.235Z,72.37
2019-05-11T07:55:28.799Z,71.46
2019-05-11T07:57:55.604Z,73.16
2019-05-11T08:00:22.367Z,71.90
2019-05-11T08:02:49.156Z,71.85
2019-05-11T08:05:17.998Z,72.14
2019-05-11T08:07:48.144Z,71.27
2019-05-11T08:10:18.563Z,71.41
2019-05-11T08:12:45.301Z,71.02
2019-05-11T08:15:13.801Z,70.02
2019-05-11T08:17:40.765Z,71.57
2019-05-11T08:20:08.536Z,70.18
2019-05-11T08:22:55.058Z,68.76
2019-05-11T08:25:21.731Z,68.95
2019-05-11T08:27:48.711Z,68.96
2019-05-11T08:30:15.985Z,67.95
2019-05-11T08:32:44.177Z,69.13
2019-05-11T08:35:11.290Z,68.04
2019-05-11T08:37:38.773Z,69.61
2019-05-11T08:40:28.836Z,67.85
2019-05-11T08:43:17.814Z,67.66
2019-05-11T08:45:44.130Z,68.55
2019-05-11T08:48:10.922Z,67.76
2019-05-11T08:50:38.251Z,66.78
2019-05-11T08:53:08.438Z,68.19
2019-05-11T08:55:34.997Z,68.20
2019-05-11T08:58:01.689Z,67.57
2019-05-11T09:00:28.595Z,68.24
2019-05-11T09:02:58.035Z,68.30
2019-05-11T09:05:24.042Z,68.12
2019-05-11T09:07:51.061Z,66.33
2019-05-11T09:10:18.635Z,67.01
2019-05-11T09:12:45.644Z,67.15
2019-05-11T09:15:12.602Z,67.28
2019-05-11T09:17:39.162Z,66.71
2019-05-11T09:20:08.720Z,67.48
2019-05-11T09:22:35.236Z,67.73
2019-05-11T09:25:02.045Z,68.22
2019-05-11T09:27:28.815Z,68.14
2019-05-11T09:29:55.514Z,67.81
2019-05-11T09:32:22.310Z,67.37
2019-05-11T09:34:48.879Z,67.04
2019-05-11T09:37:18.384Z,66.27
2019-05-11T09:39:47.728Z,65.85
2019-05-11T09:42:13.766Z,64.38
2019-05-11T09:44:40.460Z,63.55
2019-05-11T09:47:08.312Z,62.80
2019-05-11T09:49:47.163Z,62.33
2019-05-11T09:52:03.982Z,62.22
2019-05-11T09:54:30.762Z,61.62
2019-05-11T09:56:57.987Z,61.45
2019-05-11T09:59:28.015Z,61.27
2019-05-11T10:01:55.887Z,60.94
2019-05-11T10:04:28.808Z,59.87
2019-05-11T10:06:58.379Z,57.52
2019-05-11T10:09:24.885Z,59.19
2019-05-11T10:11:51.818Z,59.61
2019-05-11T10:14:18.886Z,58.96
2019-05-11T10:16:45.612Z,59.80
2019-05-11T10:19:12.394Z,58.89
2019-05-11T10:21:39.091Z,58.66
2019-05-11T10:24:08.323Z,56.85
2019-05-11T10:26:34.522Z,57.50
2019-05-11T10:29:01.283Z,57.85
2019-05-11T10:31:31.116Z,60.41
2019-05-11T10:33:58.112Z,61.14
2019-05-11T10:36:24.978Z,62.03
2019-05-11T10:38:51.787Z,60.87
2019-05-11T10:41:18.597Z,60.01
2019-05-11T10:43:45.372Z,60.35
2019-05-11T10:46:19.607Z,60.84
2019-05-11T10:48:40.525Z,61.37
2019-05-11T10:51:08.241Z,60.44
2019-05-11T10:53:35.353Z,60.78
2019-05-11T10:56:02.141Z,60.77
2019-05-11T10:58:28.836Z,61.56
2019-05-11T11:00:58.073Z,61.11
2019-05-11T11:03:24.385Z,60.48
2019-05-11T11:05:51.112Z,61.48
2019-05-11T11:08:18.516Z,62.32
2019-05-11T11:10:45.642Z,62.04
2019-05-11T11:13:12.412Z,62.56
2019-05-11T11:15:39.247Z,63.95
2019-05-11T11:18:08.394Z,63.65
2019-05-11T11:20:34.592Z,65.23
2019-05-11T11:23:01.310Z,64.06
2019-05-11T11:25:28.498Z,66.73
2019-05-11T11:27:57.708Z,68.35
2019-05-11T11:30:24.193Z,66.24
2019-05-11T11:32:50.860Z,67.39
2019-05-11T11:35:18.766Z,68.34
2019-05-11T11:37:47.727Z,67.63
2019-05-11T11:40:14.470Z,67.84
2019-05-11T11:42:41.413Z,67.62
2019-05-11T11:45:08.792Z,67.40
2019-05-11T11:47:35.580Z,69.10
2019-05-11T11:50:02.427Z,70.57
2019-05-11T11:52:28.983Z,69.43
2019-05-11T11:54:55.773Z,71.69
2019-05-11T11:57:22.566Z,71.92
2019-05-11T11:59:49.367Z,72.35
2019-05-11T12:02:16.052Z,71.50
2019-05-11T12:04:42.794Z,70.74
2019-05-11T12:07:09.474Z,72.70
2019-05-11T12:09:37.774Z,70.72
2019-05-11T12:12:04.708Z,72.58
2019-05-11T12:14:31.291Z,72.22
2019-05-11T12:17:07.482Z,73.41
2019-05-11T12:19:27.875Z,74.25
2019-05-11T12:21:54.917Z,74.27
2019-05-11T12:24:21.782Z,76.17
2019-05-11T12:26:48.710Z,76.12
2019-05-11T12:29:15.395Z,77.03
2019-05-11T12:31:42.184Z,76.09
2019-05-11T12:34:08.957Z,76.45
2019-05-11T12:36:35.611Z,76.66
2019-05-11T12:39:04.425Z,77.45
2019-05-11T12:41:31.325Z,77.44
2019-05-11T12:43:58.089Z,78.01
2019-05-11T12:46:24.864Z,77.55
2019-05-11T12:48:51.625Z,78.79
2019-05-11T12:51:18.763Z,78.17
2019-05-11T12:53:47.549Z,76.83
2019-05-11T12:56:14.087Z,76.53
2019-05-11T12:58:40.623Z,76.59
2019-05-11T13:01:08.976Z,77.08
2019-05-11T13:03:38.401Z,75.51
2019-05-11T13:06:04.598Z,72.73
2019-05-11T13:08:31.416Z,75.46
2019-05-11T13:10:58.512Z,76.07
2019-05-11T13:13:25.409Z,73.71
2019-05-11T13:15:52.079Z,74.74
2019-05-11T13:18:18.779Z,74.42
2019-05-11T13:20:45.420Z,72.33
2019-05-11T13:23:12.112Z,70.01
2019-05-11T13:25:39.034Z,70.93
2019-05-11T13:28:05.866Z,69.42
2019-05-11T13:30:32.525Z,70.57
2019-05-11T13:32:59.202Z,74.64
2019-05-11T13:35:28.303Z,72.67
2019-05-11T13:37:54.453Z,69.95
2019-05-11T13:40:21.140Z,69.43
2019-05-11T13:42:48.983Z,67.74
2019-05-11T13:45:17.739Z,66.48
2019-05-11T13:47:52.688Z,65.95
2019-05-11T13:50:13.621Z,67.63
2019-05-11T13:52:40.402Z,67.22
2019-05-11T13:55:07.860Z,66.82
2019-05-11T13:57:37.803Z,67.71
2019-05-11T14:02:54.638Z,66.92
2019-05-11T14:05:21.487Z,70.41
2019-05-11T14:07:48.394Z,69.30
2019-05-11T14:10:15.325Z,68.80
2019-05-11T14:12:42.513Z,68.55
2019-05-11T14:15:09.162Z,67.22
2019-05-11T14:17:37.861Z,67.79
2019-05-11T14:20:04.814Z,64.81
2019-05-11T14:22:31.497Z,66.99
2019-05-11T14:24:58.734Z,63.38
2019-05-11T14:27:25.334Z,64.81
2019-05-11T14:29:52.003Z,65.72
2019-05-11T14:32:18.762Z,64.40
2019-05-11T14:34:45.341Z,63.21
2019-05-11T14:37:12.142Z,64.03
2019-05-11T14:39:38.721Z,65.26
2019-05-11T14:42:07.534Z,64.46
2019-05-11T14:44:34.017Z,63.95
2019-05-11T14:47:00.570Z,64.09
2019-05-11T14:49:27.702Z,64.44
2019-05-11T14:52:14.167Z,61.40
2019-05-11T14:54:41.550Z,62.63
2019-05-11T14:57:08.331Z,60.34
2019-05-11T14:59:35.098Z,59.66
2019-05-11T15:02:11.532Z,61.12
2019-05-11T15:04:38.271Z,59.65
2019-05-11T15:07:04.932Z,58.47
2019-05-11T15:09:31.664Z,57.93
2019-05-11T15:11:58.329Z,59.09
2019-05-11T15:14:25.014Z,58.73
2019-05-11T15:16:51.675Z,57.40
2019-05-11T15:19:18.635Z,58.11
2019-05-11T15:21:47.621Z,58.41
2019-05-11T15:24:14.266Z,55.12
2019-05-11T15:26:40.930Z,55.64
2019-05-11T15:29:08.297Z,56.07
2019-05-11T15:31:35.177Z,55.43
2019-05-11T15:34:01.875Z,55.77
2019-05-11T15:36:28.829Z,54.56
2019-05-11T15:38:55.403Z,52.44
2019-05-11T15:41:21.974Z,51.46
2019-05-11T15:43:48.751Z,52.29
2019-05-11T15:46:19.561Z,49.97
2019-05-11T15:48:58.478Z,50.89
2019-05-11T15:51:13.328Z,50.96
2019-05-11T15:53:39.900Z,51.33
2019-05-11T15:56:08.560Z,52.39
2019-05-11T15:58:35.173Z,52.46
2019-05-11T16:01:01.994Z,53.58
2019-05-11T16:03:28.665Z,54.90
2019-05-11T16:05:55.332Z,55.06
2019-05-11T16:08:21.905Z,55.12
2019-05-11T16:10:49.010Z,57.31
2019-05-11T16:13:17.903Z,56.11
2019-05-11T16:15:44.514Z,55.98
2019-05-11T16:18:11.161Z,55.20
2019-05-11T16:20:37.839Z,56.02
2019-05-11T16:23:04.512Z,55.83
2019-05-11T16:25:31.333Z,56.11
2019-05-11T16:27:57.978Z,56.85
2019-05-11T16:30:25.054Z,55.73
2019-05-11T16:32:51.615Z,55.76
2019-05-11T16:35:18.528Z,55.02
2019-05-11T16:37:45.308Z,55.94
2019-05-11T16:40:12.344Z,56.67
2019-05-11T16:42:39.126Z,56.96
2019-05-11T16:45:08.513Z,56.85
2019-05-11T16:47:35.188Z,56.84
2019-05-11T16:50:01.955Z,56.21
2019-05-11T16:52:28.833Z,57.10
2019-05-11T16:54:55.397Z,56.13
2019-05-11T16:57:22.176Z,55.62
2019-05-11T16:59:48.852Z,53.42
2019-05-11T17:02:15.637Z,53.09
2019-05-11T17:04:42.259Z,54.83
2019-05-11T17:07:08.986Z,55.07
2019-05-11T17:09:37.806Z,54.60
2019-05-11T17:12:04.931Z,54.03
2019-05-11T17:14:31.619Z,52.92
2019-05-11T17:16:58.651Z,52.62
2019-05-11T17:19:41.851Z,52.10
2019-05-11T17:21:54.370Z,51.16
2019-05-11T17:24:20.954Z,50.56
2019-05-11T17:26:47.977Z,49.92
2019-05-11T17:29:14.687Z,49.70
2019-05-11T17:31:41.574Z,49.13
2019-05-11T17:34:09.036Z,47.85
2019-05-11T17:36:36.227Z,47.31
2019-05-11T17:39:06.358Z,45.87
2019-05-11T17:41:32.946Z,46.22
2019-05-11T17:43:59.512Z,46.47
2019-05-11T17:46:27.832Z,47.02
2019-05-11T17:48:54.725Z,47.48
2019-05-11T17:51:24.877Z,47.74
2019-05-11T17:53:49.989Z,47.61
2019-05-11T17:56:16.556Z,47.59
2019-05-11T17:58:43.143Z,48.53
2019-05-11T18:01:10.225Z,47.46
2019-05-11T18:03:38.457Z,47.98
2019-05-11T18:06:05.400Z,47.85
2019-05-11T18:08:31.969Z,48.27
2019-05-11T18:10:59.151Z,49.00
2019-05-11T18:13:28.124Z,48.63
2019-05-11T18:15:54.524Z,48.66
2019-05-11T18:18:24.028Z,48.79
2019-05-11T18:20:50.003Z,49.02
2019-05-11T18:23:17.584Z,49.43
2019-05-11T18:25:44.465Z,49.55
2019-05-11T18:28:14.146Z,49.90
2019-05-11T18:30:39.886Z,50.24
2019-05-11T18:33:08.295Z,50.72
2019-05-11T18:35:35.520Z,52.08
2019-05-11T18:38:02.296Z,51.61
2019-05-11T18:40:29.006Z,51.67
2019-05-11T18:42:57.867Z,52.33
2019-05-11T18:45:24.735Z,53.39
2019-05-11T18:47:51.300Z,54.72
2019-05-11T18:50:29.984Z,55.91
2019-05-11T18:52:49.025Z,56.84
2019-05-11T18:55:15.615Z,57.87
2019-05-11T18:57:42.693Z,58.87
2019-05-11T19:00:09.565Z,59.76
2019-05-11T19:02:38.410Z,60.12
2019-05-11T19:05:05.693Z,60.96
2019-05-11T19:07:32.567Z,61.36
2019-05-11T19:09:59.710Z,63.02
2019-05-11T19:12:27.890Z,63.45
2019-05-11T19:14:54.743Z,63.43
2019-05-11T19:17:23.640Z,63.57
2019-05-11T19:19:50.351Z,64.55
2019-05-11T19:22:18.313Z,65.29
2019-05-11T19:24:47.581Z,65.00
2019-05-11T19:27:14.500Z,65.47
2019-05-11T19:29:41.420Z,65.88
2019-05-11T19:32:11.144Z,66.23
2019-05-11T19:34:38.810Z,66.28
2019-05-11T19:37:05.713Z,65.97
2019-05-11T19:39:32.435Z,66.32
2019-05-11T19:41:59.041Z,66.78
2019-05-11T19:44:27.833Z,66.55
2019-05-11T19:46:54.212Z,67.66
2019-05-11T19:49:20.895Z,68.06
2019-05-11T19:51:48.660Z,68.34
2019-05-11T19:54:15.524Z,68.37
2019-05-11T19:56:42.109Z,68.01
2019-05-11T19:59:08.971Z,68.27
2019-05-11T20:01:35.742Z,68.32
2019-05-11T20:04:02.423Z,68.10
2019-05-11T20:06:29.059Z,68.29
2019-05-11T20:08:57.702Z,68.64
2019-05-11T20:11:24.310Z,69.32
2019-05-11T20:13:50.869Z,69.31
2019-05-11T20:16:18.737Z,69.47
2019-05-11T20:18:45.633Z,69.26
2019-05-11T20:21:19.253Z,69.29
2019-05-11T20:23:41.037Z,69.46
2019-05-11T20:26:08.878Z,69.36
2019-05-11T20:28:37.781Z,69.62
2019-05-11T20:31:04.399Z,69.28
2019-05-11T20:33:31.195Z,69.22
2019-05-11T20:35:58.229Z,69.99
2019-05-11T20:38:25.030Z,70.38
2019-05-11T20:40:51.604Z,70.58
2019-05-11T20:43:18.729Z,71.10
2019-05-11T20:45:45.395Z,71.28
2019-05-11T20:48:12.073Z,71.64
2019-05-11T20:50:38.637Z,71.58
2019-05-11T20:53:05.404Z,71.29
2019-05-11T20:55:32.162Z,71.45
2019-05-11T20:57:58.866Z,71.55
2019-05-11T21:00:27.781Z,71.47
2019-05-11T21:02:54.335Z,71.78
2019-05-11T21:05:21.023Z,71.62
2019-05-11T21:07:47.683Z,71.55
2019-05-11T21:10:14.439Z,71.37
2019-05-11T21:12:41.167Z,71.65
2019-05-11T21:15:08.670Z,71.41
2019-05-11T21:17:35.369Z,71.10
2019-05-11T21:20:02.291Z,71.83
2019-05-11T21:22:29.090Z,71.75
2019-05-11T21:24:58.078Z,71.65
2019-05-11T21:27:24.140Z,71.92
2019-05-11T21:29:50.716Z,72.03
2019-05-11T21:32:17.999Z,72.16
2019-05-11T21:34:44.871Z,72.48
2019-05-11T21:37:11.575Z,72.64
2019-05-11T21:39:38.283Z,72.88
2019-05-11T21:42:07.585Z,72.96
2019-05-11T21:44:34.070Z,72.80
2019-05-11T21:47:00.830Z,72.90
2019-05-11T21:49:27.472Z,73.21
2019-05-11T21:52:04.233Z,73.40
2019-05-11T21:54:22.828Z,73.78
2019-05-11T21:56:49.512Z,74.08
2019-05-11T21:59:18.262Z,74.08
2019-05-11T22:01:45.126Z,73.78
2019-05-11T22:04:11.932Z,73.96
2019-05-11T22:06:39.202Z,74.41
2019-05-11T22:09:08.233Z,74.29
2019-05-11T22:11:35.042Z,74.13
2019-05-11T22:14:01.936Z,74.62
2019-05-11T22:16:30.251Z,74.62
2019-05-11T22:18:57.968Z,74.99
2019-05-11T22:21:24.898Z,75.01
2019-05-11T22:23:51.775Z,74.45
2019-05-11T22:26:18.559Z,74.78
2019-05-11T22:28:47.632Z,74.71
2019-05-11T22:31:14.105Z,74.91
2019-05-11T22:33:40.791Z,74.79
2019-05-11T22:36:07.475Z,75.15
2019-05-11T22:38:34.049Z,75.25
2019-05-11T22:41:00.942Z,75.98
2019-05-11T22:43:28.545Z,76.48
2019-05-11T22:45:57.935Z,76.73
2019-05-11T22:48:24.304Z,76.08
2019-05-11T22:50:51.543Z,76.29
2019-05-11T22:53:18.834Z,76.82
2019-05-11T22:55:45.642Z,76.84
2019-05-11T22:58:12.342Z,77.31
2019-05-11T23:00:41.479Z,77.51
2019-05-11T23:03:10.976Z,77.16
2019-05-11T23:05:38.295Z,76.73
2019-05-11T23:08:07.531Z,76.92
2019-05-11T23:10:34.101Z,77.03
2019-05-11T23:13:01.355Z,76.78
2019-05-11T23:15:28.326Z,76.66
2019-05-11T23:17:55.147Z,76.37
2019-05-11T23:20:21.842Z,76.43
2019-05-11T23:22:57.814Z,76.97
2019-05-11T23:25:18.482Z,77.14
2019-05-11T23:27:45.404Z,77.55
2019-05-11T23:30:13.164Z,77.58
2019-05-11T23:32:39.923Z,77.59
2019-05-11T23:35:08.391Z,77.71
2019-05-11T23:37:35.395Z,77.95
2019-05-11T23:40:02.170Z,77.90
2019-05-11T23:42:30.832Z,78.37
2019-05-11T23:44:58.653Z,78.63
2019-05-11T23:47:25.478Z,78.56
2019-05-11T23:49:52.163Z,78.91
2019-05-11T23:52:18.848Z,79.10
2019-05-11T23:54:45.434Z,78.52
2019-05-11T23:57:12.113Z,78.81
2019-05-11T23:59:38.804Z,79.24
